Time;durP1;ratioP1;P1;durP2;ratioP2;P2;SDS_P1;SDS_P2;PMS_P1;PMS_P2;Temp;Humidity;BMP_temperature;BMP_pressure;BME280_temperature;BME280_humidity;BME280_pressure;Samples;Min_cycle;Max_cycle;Signal;HPM_P1;HPM_P2
2022/08/02 00:02:23;;;;;;;1.45;0.90;;;13.20;99.90;;;;;;5041563;28;20080;-72
2022/08/02 00:04:48;;;;;;;1.92;0.63;;;13.20;99.90;;;;;;5040391;28;20460;-72
2022/08/02 00:07:14;;;;;;;0.93;0.52;;;13.20;99.90;;;;;;5040983;28;20048;-72
2022/08/02 00:09:40;;;;;;;0.82;0.50;;;13.20;99.90;;;;;;5041202;28;20092;-72
2022/08/02 00:12:07;;;;;;;0.93;0.55;;;13.20;99.90;;;;;;5059146;28;20064;-71
2022/08/02 00:14:32;;;;;;;2.65;0.90;;;13.20;99.90;;;;;;5031876;28;20068;-71
2022/08/02 00:16:58;;;;;;;0.82;0.47;;;13.10;99.90;;;;;;5040058;28;20155;-71
2022/08/02 00:19:24;;;;;;;2.22;0.95;;;13.10;99.90;;;;;;5041932;28;20061;-71
2022/08/02 00:21:49;;;;;;;2.10;0.85;;;13.20;99.90;;;;;;5041517;28;20794;-72
2022/08/02 00:24:15;;;;;;;1.58;0.77;;;13.20;99.90;;;;;;5039484;28;20040;-72
2022/08/02 00:26:40;;;;;;;2.47;0.90;;;13.10;99.90;;;;;;5043151;28;20044;-72
2022/08/02 00:29:06;;;;;;;1.33;0.77;;;13.10;99.90;;;;;;5045406;28;20049;-72
2022/08/02 00:31:32;;;;;;;0.85;0.47;;;13.10;99.90;;;;;;5045423;28;20090;-71
2022/08/02 00:33:58;;;;;;;1.90;0.85;;;13.10;99.90;;;;;;5045941;28;20514;-72
2022/08/02 00:36:23;;;;;;;3.90;1.02;;;13.10;99.90;;;;;;5046570;28;20064;-71
2022/08/02 00:38:49;;;;;;;1.25;0.63;;;13.10;99.90;;;;;;5043661;28;20071;-71
2022/08/02 00:41:18;;;;;;;1.45;0.90;;;13.00;99.90;;;;;;5043494;28;20041;-71
2022/08/02 00:43:44;;;;;;;2.47;0.70;;;13.10;99.90;;;;;;5056403;28;20429;-71
2022/08/02 00:46:10;;;;;;;1.73;0.95;;;13.00;99.90;;;;;;5044792;28;20040;-72
2022/08/02 00:48:36;;;;;;;1.38;0.68;;;13.00;99.90;;;;;;5044437;28;20501;-72
2022/08/02 00:51:02;;;;;;;1.52;1.00;;;13.00;99.90;;;;;;5045197;28;20135;-72
2022/08/02 00:53:28;;;;;;;2.00;1.05;;;13.00;99.90;;;;;;5043103;28;20033;-71
2022/08/02 00:55:54;;;;;;;1.65;0.82;;;13.10;99.90;;;;;;5043796;28;20068;-72
2022/08/02 00:58:19;;;;;;;1.75;0.70;;;13.10;99.90;;;;;;5043039;28;20071;-72
2022/08/02 01:00:45;;;;;;;2.03;0.57;;;13.10;99.90;;;;;;5044917;28;20047;-72
2022/08/02 01:03:11;;;;;;;5.10;0.90;;;13.10;99.90;;;;;;5044145;28;20549;-72
2022/08/02 01:05:36;;;;;;;2.65;1.08;;;13.10;99.90;;;;;;5044802;28;20111;-71
2022/08/02 01:08:03;;;;;;;2.58;0.80;;;13.10;99.90;;;;;;5043644;28;20139;-72
2022/08/02 01:10:28;;;;;;;1.48;0.73;;;13.10;99.90;;;;;;5043768;28;20033;-71
2022/08/02 01:12:54;;;;;;;2.75;0.70;;;13.00;99.90;;;;;;5045057;28;20083;-71
2022/08/02 01:15:20;;;;;;;4.07;0.77;;;13.10;99.90;;;;;;5047172;28;20032;-71
2022/08/02 01:18:12;;;;;;;1.25;0.80;;;13.00;99.90;;;;;;5042642;28;20051;-71
2022/08/02 01:20:44;;;;;;;2.65;0.93;;;13.10;99.90;;;;;;5031909;28;20051;-71
2022/08/02 01:23:31;;;;;;;4.38;0.70;;;13.10;99.90;;;;;;5043728;28;20048;-71
2022/08/02 01:26:18;;;;;;;1.50;0.90;;;13.00;99.90;;;;;;5044239;28;20048;-71
2022/08/02 01:29:13;;;;;;;3.30;1.10;;;13.00;99.90;;;;;;5054346;28;20073;-71
2022/08/02 01:31:49;;;;;;;1.75;0.93;;;13.00;99.90;;;;;;5024157;28;20619;-71
2022/08/02 01:34:17;;;;;;;;;;;13.00;99.90;;;;;;5045561;28;20037;-71
2022/08/02 01:36:47;;;;;;;1.65;0.77;;;13.00;99.90;;;;;;5024350;28;19927;-71
2022/08/02 01:39:16;;;;;;;6.88;1.08;;;13.00;99.90;;;;;;5035645;28;20037;-71
2022/08/02 01:41:43;;;;;;;0.98;0.70;;;13.00;99.90;;;;;;5058166;28;20041;-72
2022/08/02 01:44:12;;;;;;;1.75;1.00;;;13.00;99.90;;;;;;5042278;28;20037;-71
2022/08/02 01:46:40;;;;;;;1.63;0.73;;;13.00;99.90;;;;;;5044299;28;20477;-71
2022/08/02 01:49:13;;;;;;;5.18;1.00;;;13.00;99.90;;;;;;5043089;28;20060;-71
2022/08/02 01:54:28;;;;;;;2.28;0.82;;;12.90;99.90;;;;;;5041490;28;20498;-71
2022/08/02 01:56:55;;;;;;;2.00;1.05;;;12.90;99.90;;;;;;5043724;28;20044;-72
2022/08/02 01:59:22;;;;;;;1.45;0.70;;;12.90;99.90;;;;;;5042926;28;20040;-72
2022/08/02 02:01:50;;;;;;;3.80;1.10;;;12.90;99.90;;;;;;5041441;28;20098;-71
2022/08/02 02:04:17;;;;;;;1.55;0.77;;;12.90;99.90;;;;;;5041820;28;20049;-71
2022/08/02 02:06:45;;;;;;;1.67;0.88;;;12.90;99.90;;;;;;5042677;28;20056;-72
2022/08/02 02:09:13;;;;;;;2.63;1.30;;;12.90;99.90;;;;;;5040862;28;20114;-71
2022/08/02 02:11:42;;;;;;;2.92;1.05;;;12.90;99.90;;;;;;5042693;28;20049;-71
2022/08/02 02:14:10;;;;;;;3.05;1.05;;;12.80;99.90;;;;;;5042247;28;20107;-71
2022/08/02 02:16:39;;;;;;;1.75;0.82;;;12.80;99.90;;;;;;5042695;28;20060;-71
2022/08/02 02:19:08;;;;;;;2.45;1.05;;;12.70;99.90;;;;;;5044942;28;20279;-71
2022/08/02 02:21:33;;;;;;;1.85;1.00;;;12.70;99.90;;;;;;5043800;28;20044;-71
2022/08/02 02:23:59;;;;;;;1.35;0.82;;;12.70;99.90;;;;;;5040306;28;20037;-71
2022/08/02 02:26:26;;;;;;;2.13;1.00;;;12.70;99.90;;;;;;5042191;28;20036;-72
2022/08/02 02:28:54;;;;;;;2.75;0.98;;;12.70;99.90;;;;;;5041365;28;20049;-71
2022/08/02 02:31:20;;;;;;;1.75;1.00;;;12.70;99.90;;;;;;5043161;28;20560;-71
2022/08/02 02:33:50;;;;;;;2.67;1.13;;;12.70;99.90;;;;;;5043270;28;20032;-71
2022/08/02 02:36:19;;;;;;;2.42;1.35;;;12.70;99.90;;;;;;5042313;28;20086;-71
2022/08/02 02:38:47;;;;;;;1.55;0.77;;;12.70;99.90;;;;;;5038996;28;20087;-71
2022/08/02 02:41:14;;;;;;;1.23;0.73;;;12.70;99.90;;;;;;5042598;28;20068;-71
2022/08/02 02:43:42;;;;;;;2.25;0.93;;;12.70;99.90;;;;;;5042367;28;20049;-71
2022/08/02 02:46:09;;;;;;;1.55;1.05;;;12.70;99.90;;;;;;5041452;28;20444;-71
2022/08/02 02:48:36;;;;;;;1.73;0.90;;;12.70;99.90;;;;;;5039838;28;20112;-71
2022/08/02 02:51:06;;;;;;;3.42;1.55;;;12.70;99.90;;;;;;5042187;28;20071;-71
2022/08/02 02:53:35;;;;;;;1.85;1.00;;;12.60;99.90;;;;;;5041366;28;20493;-71
2022/08/02 02:56:01;;;;;;;3.70;1.30;;;12.60;99.90;;;;;;5044793;28;20037;-71
2022/08/02 02:58:27;;;;;;;2.42;1.25;;;12.60;99.90;;;;;;5040474;28;20132;-72
2022/08/02 03:03:49;;;;;;;2.88;1.40;;;12.70;99.90;;;;;;5025785;28;20048;-72
2022/08/02 03:06:15;;;;;;;2.05;1.20;;;12.70;99.90;;;;;;5042932;28;20726;-71
2022/08/02 03:08:40;;;;;;;3.33;1.05;;;12.70;99.90;;;;;;5040752;28;20564;-72
2022/08/02 03:11:08;;;;;;;3.40;1.10;;;12.70;99.90;;;;;;5042484;28;20095;-71
2022/08/02 03:13:35;;;;;;;3.08;1.40;;;12.70;99.90;;;;;;5039370;28;20051;-72
2022/08/02 03:16:01;;;;;;;3.40;1.10;;;12.70;99.90;;;;;;5041510;28;20406;-72
2022/08/02 03:18:36;;;;;;;1.35;0.90;;;12.70;99.90;;;;;;5039365;28;20072;-71
2022/08/02 03:21:04;;;;;;;5.20;1.08;;;12.70;99.90;;;;;;5040277;28;20240;-71
2022/08/02 03:23:30;;;;;;;2.97;1.00;;;12.70;99.90;;;;;;5024292;28;20068;-71
2022/08/02 03:25:56;;;;;;;1.88;1.27;;;12.60;99.90;;;;;;5040965;28;20045;-71
2022/08/02 03:28:22;;;;;;;2.88;1.25;;;12.70;99.90;;;;;;5048359;28;20505;-71
2022/08/02 03:30:48;;;;;;;3.60;1.33;;;12.70;99.90;;;;;;5042642;28;20179;-71
2022/08/02 03:33:14;;;;;;;2.40;1.40;;;12.60;99.90;;;;;;5042283;28;20040;-71
2022/08/02 03:35:41;;;;;;;2.58;1.23;;;12.60;99.90;;;;;;5041736;28;20043;-71
2022/08/02 03:38:07;;;;;;;2.45;1.13;;;12.70;99.90;;;;;;5041250;28;20102;-71
2022/08/02 03:40:35;;;;;;;1.95;1.25;;;12.70;99.90;;;;;;5039417;28;20167;-71
2022/08/02 03:43:01;;;;;;;7.18;1.60;;;12.70;99.90;;;;;;5040007;28;20509;-71
2022/08/02 03:45:28;;;;;;;4.00;1.77;;;12.70;99.90;;;;;;5041339;28;20048;-71
2022/08/02 03:47:55;;;;;;;1.92;1.10;;;12.70;99.90;;;;;;5054147;28;20112;-71
2022/08/02 03:50:21;;;;;;;2.38;1.13;;;12.70;99.90;;;;;;5048242;28;20445;-71
2022/08/02 03:52:47;;;;;;;2.88;1.30;;;12.70;99.90;;;;;;5029170;28;20037;-71
2022/08/02 03:55:13;;;;;;;2.42;1.10;;;12.70;99.90;;;;;;5045469;28;20037;-71
2022/08/02 03:57:42;;;;;;;3.80;1.40;;;12.70;99.90;;;;;;5044540;28;20041;-71
2022/08/02 04:00:10;;;;;;;7.78;1.48;;;12.70;99.90;;;;;;5046766;28;20119;-71
2022/08/02 04:02:36;;;;;;;2.28;1.15;;;12.70;99.90;;;;;;5046618;28;20045;-71
2022/08/02 04:05:02;;;;;;;2.40;1.33;;;12.70;99.90;;;;;;5051072;28;20522;-71
2022/08/02 04:07:28;;;;;;;2.55;1.33;;;12.70;99.90;;;;;;5050327;28;20067;-71
2022/08/02 04:09:53;;;;;;;3.08;1.55;;;12.80;99.90;;;;;;5031752;28;20055;-71
2022/08/02 04:12:19;;;;;;;2.95;1.15;;;12.80;99.90;;;;;;5017970;28;20060;-71
2022/08/02 04:14:45;;;;;;;2.72;1.05;;;12.80;99.90;;;;;;5050878;28;20530;-71
2022/08/02 04:17:12;;;;;;;1.50;1.00;;;12.90;99.90;;;;;;5049728;28;20518;-71
2022/08/02 04:20:07;;;;;;;2.10;1.13;;;12.80;99.90;;;;;;5051491;28;20387;-71
2022/08/02 04:23:04;;;;;;;2.08;1.10;;;12.90;99.90;;;;;;5049781;28;20048;-71
2022/08/02 04:25:31;;;;;;;3.22;1.67;;;12.90;99.90;;;;;;5049841;28;20041;-71
2022/08/02 04:27:59;;;;;;;3.67;1.10;;;12.90;99.90;;;;;;5049115;28;20063;-71
2022/08/02 04:30:25;;;;;;;5.35;1.20;;;12.90;99.90;;;;;;5048800;28;20049;-71
2022/08/02 04:32:51;;;;;;;3.42;1.38;;;13.00;99.90;;;;;;5051311;28;20036;-71
2022/08/02 04:35:17;;;;;;;4.50;1.52;;;13.00;99.90;;;;;;5065808;28;20041;-71
2022/08/02 04:37:43;;;;;;;5.70;1.60;;;13.00;99.90;;;;;;5049552;28;20041;-72
2022/08/02 04:40:10;;;;;;;4.80;1.40;;;13.10;99.90;;;;;;5049712;28;20049;-71
2022/08/02 04:42:36;;;;;;;2.20;1.13;;;13.10;99.90;;;;;;5046111;28;20045;-71
2022/08/02 04:45:03;;;;;;;4.47;1.80;;;13.20;99.90;;;;;;5051085;28;20506;-71
2022/08/02 04:47:29;;;;;;;3.45;0.98;;;13.20;99.90;;;;;;5049595;28;20056;-71
2022/08/02 04:49:54;;;;;;;3.22;1.38;;;13.20;99.90;;;;;;5029708;28;20045;-71
2022/08/02 04:52:20;;;;;;;2.80;1.42;;;13.30;99.90;;;;;;5043266;28;20143;-71
2022/08/02 04:54:46;;;;;;;3.78;1.67;;;13.30;99.90;;;;;;5048819;28;20057;-71
2022/08/02 04:59:56;;;;;;;6.38;2.00;;;13.40;99.90;;;;;;5049719;28;20071;-71
2022/08/02 05:02:21;;;;;;;4.43;1.27;;;13.40;99.90;;;;;;5031872;28;20517;-71
2022/08/02 05:04:47;;;;;;;5.90;1.65;;;13.50;99.90;;;;;;5049579;28;20513;-71
2022/08/02 05:07:13;;;;;;;3.28;1.40;;;13.50;99.90;;;;;;5047754;28;20060;-72
2022/08/02 05:09:38;;;;;;;6.68;1.58;;;13.50;99.90;;;;;;5047069;28;20044;-71
2022/08/02 05:12:05;;;;;;;4.35;1.45;;;13.50;99.90;;;;;;5047530;28;20066;-71
2022/08/02 05:14:31;;;;;;;4.88;1.80;;;13.50;99.90;;;;;;5049042;28;20079;-71
2022/08/02 05:16:56;;;;;;;4.75;1.48;;;13.50;99.90;;;;;;5049295;28;20486;-71
2022/08/02 05:19:22;;;;;;;2.17;1.05;;;13.40;99.90;;;;;;5049252;28;20051;-71
2022/08/02 05:21:47;;;;;;;4.78;1.42;;;13.60;99.90;;;;;;5032199;28;20041;-71
2022/08/02 05:24:13;;;;;;;2.38;1.13;;;13.60;99.90;;;;;;5048223;28;20037;-71
2022/08/02 05:26:39;;;;;;;3.47;1.27;;;13.60;99.90;;;;;;5048417;28;20379;-72
2022/08/02 05:29:04;;;;;;;4.07;1.23;;;13.70;99.90;;;;;;5030978;28;20564;-71
2022/08/02 05:31:30;;;;;;;4.03;1.52;;;13.70;99.90;;;;;;5048683;28;20040;-71
2022/08/02 05:33:56;;;;;;;5.72;1.38;;;13.70;99.90;;;;;;5049977;28;20047;-71
2022/08/02 05:36:21;;;;;;;3.28;1.60;;;13.80;99.90;;;;;;5048964;28;20040;-71
2022/08/02 05:38:49;;;;;;;2.45;1.38;;;13.80;99.90;;;;;;5031042;28;20500;-71
2022/08/02 05:41:14;;;;;;;5.00;1.52;;;13.80;99.90;;;;;;5046353;28;20075;-71
2022/08/02 05:43:40;;;;;;;3.90;1.23;;;13.90;99.90;;;;;;5046089;28;20505;-71
2022/08/02 05:46:05;;;;;;;2.47;1.38;;;14.00;99.90;;;;;;5043605;28;20029;-71
2022/08/02 05:48:31;;;;;;;2.70;1.00;;;14.10;99.90;;;;;;5044666;28;20033;-71
2022/08/02 05:51:03;;;;;;;10.90;1.42;;;14.10;99.90;;;;;;5044733;28;20036;-71
2022/08/02 05:53:38;;;;;;;2.25;1.10;;;14.20;99.90;;;;;;5041299;28;20516;-71
2022/08/02 05:56:28;;;;;;;2.15;0.95;;;14.20;99.90;;;;;;5025910;28;20060;-71
2022/08/02 05:58:54;;;;;;;2.70;1.55;;;14.30;99.90;;;;;;5033355;28;20037;-71
2022/08/02 06:01:31;;;;;;;2.15;1.40;;;14.40;99.90;;;;;;5043515;28;20052;-70
2022/08/02 06:03:59;;;;;;;2.03;1.13;;;14.40;99.90;;;;;;5024720;28;20040;-71
2022/08/02 06:06:28;;;;;;;3.00;1.52;;;14.40;99.90;;;;;;5044871;28;20033;-71
2022/08/02 06:09:21;;;;;;;2.95;1.35;;;14.50;99.90;;;;;;5022162;28;20123;-71
2022/08/02 06:11:51;;;;;;;2.38;1.35;;;14.50;99.90;;;;;;5040825;28;20137;-71
2022/08/02 06:14:17;;;;;;;7.22;1.30;;;14.50;99.90;;;;;;5054809;28;20041;-70
2022/08/02 06:16:43;;;;;;;3.50;1.30;;;14.60;99.90;;;;;;5039070;28;20086;-71
2022/08/02 06:19:11;;;;;;;2.55;1.50;;;14.60;99.90;;;;;;5033771;28;20025;-71
2022/08/02 06:21:41;;;;;;;2.70;1.20;;;14.70;99.90;;;;;;5045982;28;20048;-71
2022/08/02 06:24:09;;;;;;;1.70;1.10;;;14.80;99.90;;;;;;5040364;28;20040;-71
2022/08/02 06:26:35;;;;;;;2.03;1.17;;;14.80;99.90;;;;;;5040616;28;20490;-71
2022/08/02 06:29:02;;;;;;;2.42;1.10;;;14.90;99.90;;;;;;5040805;28;20041;-71
2022/08/02 06:31:28;;;;;;;3.58;1.65;;;14.90;99.90;;;;;;5046879;28;20041;-70
2022/08/02 06:33:54;;;;;;;3.42;1.23;;;15.00;99.90;;;;;;5041751;28;20112;-71
2022/08/02 06:36:48;;;;;;;3.45;1.52;;;15.20;99.90;;;;;;5042897;28;20041;-70
2022/08/02 06:39:31;;;;;;;3.75;1.10;;;15.80;99.90;;;;;;5040553;28;20695;-71
2022/08/02 06:42:01;;;;;;;3.80;1.77;;;17.00;99.90;;;;;;5043019;28;20033;-71
2022/08/02 06:44:28;;;;;;;2.15;1.33;;;17.90;99.90;;;;;;5041530;28;20059;-71
2022/08/02 06:46:53;;;;;;;6.18;1.30;;;18.70;99.90;;;;;;5042177;28;20040;-71
2022/08/02 06:49:19;;;;;;;1.95;1.08;;;19.10;99.50;;;;;;5037462;28;20029;-71
2022/08/02 06:51:45;;;;;;;2.25;1.15;;;19.30;99.30;;;;;;5042957;28;20123;-71
2022/08/02 06:54:10;;;;;;;1.77;1.10;;;19.00;99.70;;;;;;5041071;28;20041;-71
2022/08/02 06:56:36;;;;;;;2.97;1.10;;;18.70;99.90;;;;;;5041359;28;20675;-70
2022/08/02 06:59:01;;;;;;;3.60;1.08;;;18.50;99.90;;;;;;5040786;28;20041;-71
2022/08/02 07:01:27;;;;;;;1.90;1.13;;;18.20;99.90;;;;;;5042264;28;20494;-71
2022/08/02 07:03:53;;;;;;;1.90;0.80;;;18.10;99.90;;;;;;5039556;28;20048;-71
2022/08/02 07:06:18;;;;;;;2.10;1.02;;;17.90;99.90;;;;;;5040129;28;20039;-71
2022/08/02 07:08:44;;;;;;;3.00;1.23;;;17.80;99.90;;;;;;5041493;28;20049;-71
2022/08/02 07:11:10;;;;;;;4.22;0.95;;;17.70;99.90;;;;;;5041783;28;20500;-70
2022/08/02 07:13:36;;;;;;;3.67;1.30;;;17.70;99.90;;;;;;5040987;28;20033;-71
2022/08/02 07:16:03;;;;;;;1.98;1.08;;;17.70;99.90;;;;;;5043295;28;20059;-70
2022/08/02 07:18:29;;;;;;;1.83;1.00;;;17.70;99.90;;;;;;5041214;28;20314;-71
2022/08/02 07:20:55;;;;;;;2.95;1.55;;;17.60;99.90;;;;;;5037690;28;20190;-71
2022/08/02 07:23:20;;;;;;;1.50;0.80;;;17.70;99.90;;;;;;5040228;28;20044;-70
2022/08/02 07:25:47;;;;;;;2.30;0.95;;;17.80;99.90;;;;;;5042224;28;20067;-71
2022/08/02 07:28:16;;;;;;;1.85;0.93;;;17.80;99.90;;;;;;5040159;28;20095;-70
2022/08/02 07:30:42;;;;;;;1.70;0.85;;;17.90;99.90;;;;;;5041379;28;20036;-71
2022/08/02 07:33:08;;;;;;;1.52;0.80;;;17.90;99.90;;;;;;5041371;28;20116;-71
2022/08/02 07:35:34;;;;;;;4.47;0.80;;;17.90;99.90;;;;;;5039387;28;20037;-70
2022/08/02 07:38:00;;;;;;;3.63;0.70;;;17.80;99.90;;;;;;5022270;28;20071;-71
2022/08/02 07:40:26;;;;;;;3.97;0.95;;;17.70;99.90;;;;;;5045303;28;20070;-71
2022/08/02 07:42:54;;;;;;;1.80;0.90;;;17.70;99.90;;;;;;5043574;28;21762;-71
2022/08/02 07:45:21;;;;;;;2.15;0.88;;;17.70;99.90;;;;;;5027800;28;20127;-70
2022/08/02 07:47:47;;;;;;;1.50;0.70;;;17.70;99.90;;;;;;5043189;28;20041;-70
2022/08/02 07:50:15;;;;;;;3.65;0.60;;;17.90;99.90;;;;;;5042627;28;20060;-71
2022/08/02 07:52:43;;;;;;;0.80;0.60;;;17.80;99.90;;;;;;5040370;28;20041;-71
2022/08/02 07:55:10;;;;;;;3.30;0.63;;;18.00;99.90;;;;;;5041467;28;20070;-71
2022/08/02 07:57:37;;;;;;;1.63;0.90;;;18.00;99.90;;;;;;5050126;28;20076;-71
2022/08/02 08:00:05;;;;;;;3.00;0.52;;;18.10;99.90;;;;;;5033763;28;20040;-71
2022/08/02 08:02:30;;;;;;;1.23;0.63;;;18.10;99.90;;;;;;5043174;28;20049;-71
2022/08/02 08:04:57;;;;;;;1.08;0.40;;;18.00;99.90;;;;;;5045930;28;20511;-71
2022/08/02 08:07:23;;;;;;;1.25;0.50;;;18.20;99.90;;;;;;5056756;28;20128;-71
2022/08/02 08:09:49;;;;;;;0.73;0.43;;;18.20;99.90;;;;;;5044097;28;20493;-71
2022/08/02 08:12:15;;;;;;;1.52;0.70;;;18.30;99.60;;;;;;5040903;28;20049;-71
2022/08/02 08:14:41;;;;;;;1.65;0.50;;;18.40;99.30;;;;;;5039676;28;20029;-71
2022/08/02 08:17:07;;;;;;;0.80;0.43;;;18.40;98.90;;;;;;5049413;28;20128;-71
2022/08/02 08:19:33;;;;;;;0.63;0.60;;;18.60;98.70;;;;;;5042018;28;20083;-71
2022/08/02 08:21:59;;;;;;;0.98;0.60;;;18.60;98.40;;;;;;5057313;28;20132;-71
2022/08/02 08:24:25;;;;;;;0.82;0.40;;;18.70;98.30;;;;;;5041572;28;20049;-71
2022/08/02 08:26:51;;;;;;;1.00;0.60;;;18.70;98.30;;;;;;5039909;28;20040;-71
2022/08/02 08:29:17;;;;;;;2.90;1.50;;;18.80;98.10;;;;;;5040426;28;20414;-72
2022/08/02 08:31:43;;;;;;;11.57;5.68;;;18.80;98.00;;;;;;5045246;28;20048;-72
2022/08/02 08:34:09;;;;;;;7.13;2.00;;;18.90;97.90;;;;;;5045514;28;20033;-71
2022/08/02 08:36:35;;;;;;;11.75;4.85;;;18.90;97.70;;;;;;5049331;28;20051;-71
2022/08/02 08:39:00;;;;;;;5.35;2.38;;;19.00;97.70;;;;;;5042176;28;20041;-71
2022/08/02 08:41:26;;;;;;;3.30;1.75;;;19.00;97.70;;;;;;5041857;28;20053;-71
2022/08/02 08:43:52;;;;;;;4.50;2.50;;;19.10;97.70;;;;;;5039823;28;20395;-70
2022/08/02 08:46:29;;;;;;;6.15;2.58;;;19.10;97.80;;;;;;5026655;28;20052;-70
2022/08/02 08:49:00;;;;;;;4.00;2.13;;;19.10;97.00;;;;;;5024862;28;20076;-70
2022/08/02 08:51:34;;;;;;;3.95;1.52;;;19.20;97.20;;;;;;5045831;28;20528;-70
2022/08/02 08:54:02;;;;;;;2.92;1.10;;;19.20;97.10;;;;;;5042011;28;20049;-70
2022/08/02 08:56:33;;;;;;;3.08;1.30;;;19.30;97.00;;;;;;5058244;28;20041;-70
2022/08/02 08:59:00;;;;;;;4.00;1.20;;;19.30;97.10;;;;;;5023969;28;20498;-70
2022/08/02 09:01:25;;;;;;;2.20;0.70;;;19.40;97.20;;;;;;5043166;28;20443;-70
2022/08/02 09:03:51;;;;;;;1.58;0.60;;;19.50;97.20;;;;;;5043006;28;20131;-70
2022/08/02 09:06:17;;;;;;;3.10;1.90;;;19.50;96.90;;;;;;5039365;28;20037;-70
2022/08/02 09:08:42;;;;;;;9.23;4.40;;;19.60;96.90;;;;;;5040539;28;20414;-70
2022/08/02 09:11:17;;;;;;;1.70;0.77;;;19.60;96.90;;;;;;5039686;28;20252;-70
2022/08/02 09:13:52;;;;;;;1.08;0.65;;;19.70;96.40;;;;;;5056797;28;20120;-71
2022/08/02 09:16:37;;;;;;;1.10;0.50;;;19.80;95.60;;;;;;5042601;28;20509;-71
2022/08/02 09:19:25;;;;;;;0.93;0.60;;;19.90;95.50;;;;;;5043061;28;20091;-70
2022/08/02 09:22:00;;;;;;;1.25;0.80;;;19.90;95.40;;;;;;5028360;28;20303;-70
2022/08/02 09:24:26;;;;;;;1.27;0.65;;;20.00;93.90;;;;;;5039212;28;20094;-71
2022/08/02 09:26:52;;;;;;;1.77;0.60;;;20.10;95.40;;;;;;5037035;28;20036;-71
2022/08/02 09:29:21;;;;;;;2.15;0.50;;;20.30;95.20;;;;;;5041794;28;20429;-71
2022/08/02 09:31:48;;;;;;;1.63;0.82;;;20.20;95.00;;;;;;5035929;28;20033;-71
2022/08/02 09:34:14;;;;;;;1.05;0.70;;;20.40;95.10;;;;;;5041200;28;20048;-69
2022/08/02 09:36:46;;;;;;;2.83;0.98;;;20.40;94.60;;;;;;5037894;28;20033;-72
2022/08/02 09:39:16;;;;;;;0.80;0.47;;;20.50;94.20;;;;;;5040003;28;20529;-72
2022/08/02 09:41:44;;;;;;;3.35;0.80;;;20.60;93.50;;;;;;5020262;28;20487;-72
2022/08/02 09:44:14;;;;;;;0.95;0.60;;;20.60;93.70;;;;;;5042008;28;20459;-72
2022/08/02 09:46:43;;;;;;;1.25;0.55;;;20.70;93.30;;;;;;5038191;28;20086;-72
2022/08/02 09:49:18;;;;;;;1.02;0.60;;;20.80;93.40;;;;;;5039744;28;20124;-72
2022/08/02 09:51:49;;;;;;;1.10;0.50;;;20.80;93.00;;;;;;5042853;28;20084;-72
2022/08/02 09:54:17;;;;;;;2.15;0.88;;;20.90;93.40;;;;;;5044272;28;20044;-72
2022/08/02 09:56:51;;;;;;;1.10;0.50;;;20.90;93.60;;;;;;5043910;28;20120;-72
2022/08/02 09:59:20;;;;;;;1.35;0.70;;;20.90;93.40;;;;;;5038349;28;20116;-72
2022/08/02 10:01:47;;;;;;;1.08;0.68;;;20.90;93.70;;;;;;5035677;28;20085;-72
2022/08/02 10:04:14;;;;;;;2.80;0.70;;;21.00;93.80;;;;;;5035232;28;20045;-72
2022/08/02 10:06:42;;;;;;;1.13;0.80;;;21.00;94.00;;;;;;5033879;28;20466;-71
2022/08/02 10:09:09;;;;;;;3.28;1.15;;;21.10;94.10;;;;;;5035026;28;20358;-72
2022/08/02 10:11:35;;;;;;;2.25;0.85;;;21.10;94.20;;;;;;5034644;28;20051;-72
2022/08/02 10:14:06;;;;;;;1.42;0.98;;;21.20;94.30;;;;;;5036565;28;20402;-72
2022/08/02 10:16:37;;;;;;;1.90;0.90;;;21.30;94.30;;;;;;5018690;28;20725;-71
2022/08/02 10:19:03;;;;;;;6.70;1.15;;;21.30;94.50;;;;;;5039067;28;20049;-72
2022/08/02 10:21:54;;;;;;;2.97;1.38;;;21.40;94.70;;;;;;5114233;27;20438;-71
2022/08/02 10:24:22;;;;;;;1.67;1.00;;;21.40;94.00;;;;;;5098728;28;20650;-70
2022/08/02 10:26:48;;;;;;;1.85;1.08;;;21.50;94.50;;;;;;5099169;28;20126;-71
2022/08/02 10:29:19;;;;;;;3.30;1.30;;;21.50;94.40;;;;;;5113494;27;20055;-71
2022/08/02 10:32:20;;;;;;;1.95;0.90;;;21.60;94.10;;;;;;5080325;28;20284;-70
2022/08/02 10:35:08;;;;;;;2.80;1.08;;;21.70;93.70;;;;;;5100000;28;20039;-71
2022/08/02 10:37:38;;;;;;;3.03;1.30;;;21.80;94.50;;;;;;5079601;28;20066;-71
2022/08/02 10:40:05;;;;;;;2.63;1.48;;;21.90;94.50;;;;;;5077386;28;20489;-71
2022/08/02 10:42:48;;;;;;;5.03;1.20;;;21.90;94.50;;;;;;5079291;28;20108;-71
2022/08/02 10:45:16;;;;;;;1.80;0.95;;;21.90;94.10;;;;;;5108455;27;20040;-71
2022/08/02 10:48:11;;;;;;;2.38;1.17;;;22.00;94.50;;;;;;5096049;28;20043;-71
2022/08/02 10:50:45;;;;;;;2.08;1.10;;;22.10;94.10;;;;;;5079987;28;20035;-71
2022/08/02 10:53:22;;;;;;;2.38;1.25;;;22.10;94.30;;;;;;5098741;28;20497;-71
2022/08/02 10:55:48;;;;;;;2.50;1.00;;;22.20;94.20;;;;;;5103409;28;20040;-71
2022/08/02 10:58:31;;;;;;;2.28;1.30;;;22.30;94.10;;;;;;5083011;28;20388;-71
2022/08/02 11:01:02;;;;;;;1.92;1.00;;;22.40;93.70;;;;;;5094302;28;20163;-71
2022/08/02 11:03:27;;;;;;;1.92;1.05;;;22.50;94.00;;;;;;5081213;28;20304;-71
2022/08/02 11:06:05;;;;;;;1.88;0.82;;;22.50;94.10;;;;;;5112436;28;20051;-71
2022/08/02 11:08:31;;;;;;;2.85;1.27;;;22.70;93.10;;;;;;5092829;28;20489;-71
2022/08/02 11:11:14;;;;;;;1.73;1.00;;;22.70;93.40;;;;;;5101667;27;20036;-71
2022/08/02 11:14:07;;;;;;;3.17;1.02;;;22.80;92.70;;;;;;5102670;28;20031;-71
2022/08/02 11:17:04;;;;;;;2.10;1.10;;;22.90;91.40;;;;;;5089185;28;20046;-71
2022/08/02 11:19:30;;;;;;;3.25;1.23;;;22.90;91.00;;;;;;5101593;28;20051;-71
2022/08/02 11:22:09;;;;;;;1.80;1.00;;;22.90;92.60;;;;;;5097318;28;20437;-71
2022/08/02 11:24:37;;;;;;;1.40;0.90;;;23.00;92.50;;;;;;5096379;27;20032;-71
2022/08/02 11:27:08;;;;;;;3.22;1.10;;;23.10;92.90;;;;;;5100457;28;20640;-71
2022/08/02 11:29:34;;;;;;;2.03;0.95;;;23.20;92.60;;;;;;5087209;28;20051;-71
2022/08/02 11:32:00;;;;;;;1.75;0.90;;;23.30;92.30;;;;;;5072537;28;20490;-71
2022/08/02 11:34:27;;;;;;;2.72;1.17;;;23.40;92.10;;;;;;5097904;28;20044;-71
2022/08/02 11:36:53;;;;;;;1.20;0.55;;;23.50;91.80;;;;;;5071254;28;20726;-71
2022/08/02 11:39:21;;;;;;;1.75;1.00;;;23.50;92.00;;;;;;5085175;28;20058;-72
2022/08/02 11:41:56;;;;;;;2.83;0.80;;;23.60;92.00;;;;;;5083474;28;20461;-71
2022/08/02 11:44:22;;;;;;;1.13;0.82;;;23.70;91.60;;;;;;5080409;28;20405;-71
2022/08/02 11:47:00;;;;;;;2.03;0.95;;;23.70;91.90;;;;;;5082409;28;20036;-71
2022/08/02 11:49:26;;;;;;;1.67;0.93;;;23.70;90.50;;;;;;5086357;28;20548;-71
2022/08/02 11:51:52;;;;;;;1.63;1.00;;;23.70;91.70;;;;;;5066922;28;20453;-71
2022/08/02 11:54:29;;;;;;;2.03;1.00;;;23.70;91.90;;;;;;5071388;28;20043;-71
2022/08/02 11:57:18;;;;;;;2.67;0.95;;;23.80;91.90;;;;;;5080844;28;20058;-68
2022/08/02 11:59:45;;;;;;;2.05;0.98;;;23.90;90.20;;;;;;5069877;28;20296;-71
2022/08/02 12:02:14;;;;;;;1.45;0.60;;;24.00;91.10;;;;;;5080757;28;20477;-70
2022/08/02 12:04:40;;;;;;;1.23;0.63;;;24.10;91.10;;;;;;5083170;28;20039;-71
2022/08/02 12:07:07;;;;;;;2.13;1.02;;;24.10;90.90;;;;;;5079154;28;20044;-71
2022/08/02 12:09:34;;;;;;;1.38;0.90;;;24.20;90.80;;;;;;5086181;28;20480;-70
2022/08/02 12:12:01;;;;;;;1.73;0.90;;;24.30;90.50;;;;;;5088240;28;20035;-71
2022/08/02 12:14:29;;;;;;;0.77;0.60;;;24.30;90.40;;;;;;5089922;28;20081;-70
2022/08/02 12:19:41;;;;;;;1.30;0.67;;;24.40;90.50;;;;;;5084597;28;20048;-69
2022/08/02 12:22:19;;;;;;;1.65;0.90;;;24.40;90.70;;;;;;5082093;28;21166;-71
2022/08/02 12:24:48;;;;;;;1.25;0.60;;;24.40;90.00;;;;;;5079134;28;20032;-71
2022/08/02 12:27:32;;;;;;;2.35;0.68;;;24.40;90.20;;;;;;5078535;28;20051;-71
2022/08/02 12:30:09;;;;;;;1.08;0.63;;;24.40;88.70;;;;;;5075279;28;20079;-71
2022/08/02 12:32:35;;;;;;;1.63;0.57;;;24.40;90.50;;;;;;5085194;28;20064;-71
2022/08/02 12:35:04;;;;;;;1.98;0.60;;;24.50;90.60;;;;;;5083593;28;20040;-71
2022/08/02 12:37:30;;;;;;;2.15;0.77;;;24.50;90.10;;;;;;5078360;28;20039;-71
2022/08/02 12:39:55;;;;;;;2.15;0.80;;;24.60;90.10;;;;;;5087860;28;20035;-71
2022/08/02 12:42:21;;;;;;;1.40;0.63;;;24.70;89.80;;;;;;5086121;28;20131;-71
2022/08/02 12:44:57;;;;;;;1.60;0.80;;;24.70;88.90;;;;;;5076648;28;20071;-72
2022/08/02 12:47:24;;;;;;;1.38;0.80;;;24.70;87.40;;;;;;5076651;28;20032;-71
2022/08/02 12:50:17;;;;;;;2.20;0.85;;;24.70;88.70;;;;;;5086399;28;20613;-71
2022/08/02 12:52:42;;;;;;;1.55;0.82;;;24.60;85.70;;;;;;5088320;28;20527;-71
2022/08/02 12:55:27;;;;;;;1.67;0.75;;;24.60;88.80;;;;;;5083088;28;20067;-71
2022/08/02 12:58:01;;;;;;;1.33;0.63;;;24.60;86.20;;;;;;5082307;28;20481;-72
2022/08/02 13:00:29;;;;;;;2.10;0.93;;;24.40;87.70;;;;;;5074053;28;20302;-72
2022/08/02 13:02:55;;;;;;;5.25;0.90;;;24.50;88.60;;;;;;5082950;28;20573;-71
2022/08/02 13:05:21;;;;;;;1.88;0.82;;;24.50;89.10;;;;;;5080500;28;20040;-71
2022/08/02 13:07:46;;;;;;;1.70;0.63;;;24.40;89.60;;;;;;5076837;28;20036;-72
2022/08/02 13:10:13;;;;;;;1.83;0.95;;;24.40;89.70;;;;;;5090598;28;20071;-71